Time;durP1;ratioP1;P1;durP2;ratioP2;P2;SDS_P1;SDS_P2;PMS_P1;PMS_P2;Temp;Humidity;BMP_temperature;BMP_pressure;BME280_temperature;BME280_humidity;BME280_pressure;Samples;Min_cycle;Max_cycle;Signal;HPM_P1;HPM_P2
2024/03/02 00:00:22;;;;;;;4.10;2.97;;;6.10;99.90;;;;;;4949550;28;20054;-63
2024/03/02 00:02:49;;;;;;;3.85;2.78;;;6.10;99.90;;;;;;4953043;28;20099;-62
2024/03/02 00:05:18;;;;;;;5.35;3.22;;;6.00;99.90;;;;;;4951032;28;20130;-63
2024/03/02 00:07:55;;;;;;;4.90;3.35;;;6.00;99.90;;;;;;4952825;28;20134;-63
2024/03/02 00:10:28;;;;;;;5.03;3.20;;;6.10;99.90;;;;;;4951624;28;20050;-63
2024/03/02 00:12:56;;;;;;;4.38;3.20;;;6.00;99.90;;;;;;4952452;28;20074;-63
2024/03/02 00:15:47;;;;;;;4.55;3.22;;;6.00;99.90;;;;;;4951506;28;20089;-62
2024/03/02 00:18:39;;;;;;;5.68;3.22;;;6.00;99.90;;;;;;4949661;28;20138;-63
2024/03/02 00:21:09;;;;;;;3.88;3.13;;;6.00;99.90;;;;;;4950151;28;20163;-63
2024/03/02 00:23:38;;;;;;;4.60;3.20;;;6.00;99.90;;;;;;4945281;29;20044;-63
2024/03/02 00:26:05;;;;;;;5.13;3.70;;;5.90;99.90;;;;;;4952622;28;20082;-63
2024/03/02 00:28:36;;;;;;;5.68;3.40;;;5.80;99.90;;;;;;4951213;28;20510;-63
2024/03/02 00:31:13;;;;;;;5.50;3.50;;;5.80;99.90;;;;;;4948337;28;20712;-63
2024/03/02 00:33:45;;;;;;;7.63;4.25;;;5.70;99.90;;;;;;4947084;28;20134;-63
2024/03/02 00:36:14;;;;;;;5.72;4.25;;;5.50;99.90;;;;;;4948988;29;20055;-63
2024/03/02 00:38:53;;;;;;;5.53;4.32;;;5.50;99.90;;;;;;4944417;28;20059;-63
2024/03/02 00:41:23;;;;;;;5.03;3.63;;;5.40;99.90;;;;;;4944271;28;20057;-63
2024/03/02 00:44:00;;;;;;;5.55;3.83;;;5.40;99.90;;;;;;4944840;28;20047;-63
2024/03/02 00:46:37;;;;;;;6.18;3.95;;;5.30;99.90;;;;;;4946761;28;20066;-63
2024/03/02 00:49:11;;;;;;;8.68;4.05;;;5.30;99.90;;;;;;4948093;28;20054;-63
2024/03/02 00:51:39;;;;;;;5.82;3.70;;;5.30;99.90;;;;;;4954502;28;20070;-63
2024/03/02 00:54:10;;;;;;;6.03;4.15;;;5.30;99.90;;;;;;4950969;28;20039;-63
2024/03/02 00:56:37;;;;;;;5.72;3.95;;;5.20;99.90;;;;;;4947675;28;20071;-63
2024/03/02 00:59:03;;;;;;;5.97;3.92;;;5.10;99.90;;;;;;4950681;28;20471;-63
2024/03/02 01:01:30;;;;;;;8.85;6.40;;;5.00;99.90;;;;;;4953220;28;20437;-63
2024/03/02 01:03:57;;;;;;;13.02;7.88;;;5.10;99.90;;;;;;4951254;28;20049;-63
2024/03/02 01:06:24;;;;;;;9.13;6.03;;;5.10;99.90;;;;;;4950899;28;20550;-63
2024/03/02 01:08:51;;;;;;;15.00;5.75;;;5.00;99.90;;;;;;4958687;28;20047;-63
2024/03/02 01:11:21;;;;;;;7.80;5.80;;;4.90;99.90;;;;;;4947267;28;20043;-63
2024/03/02 01:13:49;;;;;;;10.32;6.25;;;4.90;99.90;;;;;;4951386;28;20054;-63
2024/03/02 01:16:16;;;;;;;12.52;8.32;;;4.90;99.90;;;;;;4949951;28;20051;-63
2024/03/02 01:18:43;;;;;;;12.80;7.85;;;4.90;99.90;;;;;;4952204;28;20054;-63
2024/03/02 01:21:09;;;;;;;12.32;7.57;;;4.90;99.90;;;;;;4947799;28;20552;-63
2024/03/02 01:23:36;;;;;;;10.13;6.85;;;4.90;99.90;;;;;;4949823;28;20464;-63
2024/03/02 01:26:03;;;;;;;10.65;6.50;;;4.80;99.90;;;;;;4951438;28;20495;-63
2024/03/02 01:28:30;;;;;;;9.43;6.65;;;4.70;99.90;;;;;;4953786;28;20039;-62
2024/03/02 01:30:57;;;;;;;12.57;7.75;;;4.60;99.90;;;;;;4949111;28;20043;-63
2024/03/02 01:33:23;;;;;;;10.52;7.00;;;4.50;99.90;;;;;;4949766;28;20145;-63
2024/03/02 01:35:50;;;;;;;9.45;6.65;;;4.50;99.90;;;;;;4952586;28;20083;-63
2024/03/02 01:38:17;;;;;;;10.38;7.10;;;4.40;99.90;;;;;;4948047;28;20075;-63
2024/03/02 01:40:46;;;;;;;9.10;6.60;;;4.40;99.90;;;;;;4947822;28;20051;-62
2024/03/02 01:43:13;;;;;;;8.50;6.30;;;4.40;99.90;;;;;;4947506;28;20120;-63
2024/03/02 01:45:41;;;;;;;10.27;6.53;;;4.30;99.90;;;;;;4950443;28;20051;-63
2024/03/02 01:48:07;;;;;;;9.68;6.70;;;4.30;99.90;;;;;;4949874;28;20047;-63
2024/03/02 01:50:35;;;;;;;11.32;6.15;;;4.30;99.90;;;;;;4948804;28;20054;-63
2024/03/02 01:53:02;;;;;;;12.57;8.13;;;4.30;99.90;;;;;;4952864;28;20051;-63
2024/03/02 01:55:30;;;;;;;9.88;7.20;;;4.30;99.90;;;;;;4946981;28;20537;-63
2024/03/02 01:57:57;;;;;;;10.93;8.00;;;4.30;99.90;;;;;;4955103;28;20082;-63
2024/03/02 02:00:25;;;;;;;10.90;7.30;;;4.30;99.90;;;;;;4950190;28;20229;-63
2024/03/02 02:02:53;;;;;;;11.98;7.63;;;4.30;99.90;;;;;;4952727;28;20106;-63
2024/03/02 02:05:20;;;;;;;9.77;7.43;;;4.30;99.90;;;;;;4949844;28;20043;-63
2024/03/02 02:07:47;;;;;;;6.78;4.18;;;4.30;99.90;;;;;;4953641;28;20115;-63
2024/03/02 02:10:14;;;;;;;10.32;6.55;;;4.40;99.90;;;;;;4952406;28;20576;-63
2024/03/02 02:12:40;;;;;;;9.45;5.78;;;4.40;99.90;;;;;;4951817;28;20130;-63
2024/03/02 02:15:28;;;;;;;7.22;5.10;;;4.40;99.90;;;;;;4952329;28;20054;-63
2024/03/02 02:17:56;;;;;;;7.05;5.07;;;4.50;99.90;;;;;;4947354;28;20049;-63
2024/03/02 02:20:24;;;;;;;8.05;5.40;;;4.50;99.90;;;;;;4948889;28;20055;-63
2024/03/02 02:23:01;;;;;;;7.45;5.03;;;4.50;99.90;;;;;;4951291;28;20051;-63
2024/03/02 02:25:29;;;;;;;4.63;3.78;;;4.50;99.90;;;;;;4951887;28;20420;-63
2024/03/02 02:27:56;;;;;;;6.25;4.22;;;4.50;99.90;;;;;;4953684;28;20046;-63
2024/03/02 02:30:29;;;;;;;6.03;4.75;;;4.60;99.90;;;;;;4947408;28;20070;-63
2024/03/02 02:32:56;;;;;;;8.70;4.72;;;4.60;99.90;;;;;;4948460;28;20624;-63
2024/03/02 02:35:26;;;;;;;6.95;4.05;;;4.60;99.90;;;;;;4946444;28;20055;-63
2024/03/02 02:37:55;;;;;;;7.25;3.47;;;4.60;99.90;;;;;;4947716;28;20051;-64
2024/03/02 02:40:22;;;;;;;5.55;3.75;;;4.70;99.90;;;;;;4949222;28;20066;-64
2024/03/02 02:42:49;;;;;;;7.22;3.72;;;4.70;99.90;;;;;;4943994;28;20055;-64
2024/03/02 02:45:16;;;;;;;6.18;4.70;;;4.80;99.90;;;;;;4942048;28;20134;-63
2024/03/02 02:47:44;;;;;;;7.97;5.00;;;4.80;99.90;;;;;;4949026;28;20054;-63
2024/03/02 02:50:12;;;;;;;7.43;5.10;;;4.80;99.90;;;;;;4950830;28;20047;-63
2024/03/02 02:52:40;;;;;;;8.52;5.50;;;4.80;99.90;;;;;;4946338;28;20043;-64
2024/03/02 02:55:09;;;;;;;9.98;5.97;;;4.90;99.90;;;;;;4948539;28;20652;-64
2024/03/02 02:57:39;;;;;;;8.00;5.72;;;4.90;99.90;;;;;;4945494;28;20126;-63
2024/03/02 03:00:14;;;;;;;6.18;4.60;;;4.90;99.90;;;;;;4949100;28;20117;-63
2024/03/02 03:02:48;;;;;;;8.40;5.93;;;4.90;99.90;;;;;;4950767;28;20091;-63
2024/03/02 03:05:16;;;;;;;8.65;5.25;;;4.80;99.90;;;;;;4947064;28;20050;-63
2024/03/02 03:07:44;;;;;;;6.68;5.28;;;4.80;99.90;;;;;;4951110;28;20054;-63
2024/03/02 03:10:11;;;;;;;7.13;5.40;;;4.80;99.90;;;;;;4953006;28;21050;-63
2024/03/02 03:12:38;;;;;;;7.20;5.40;;;4.70;99.90;;;;;;4953616;28;20054;-63
2024/03/02 03:15:06;;;;;;;7.38;5.35;;;4.70;99.90;;;;;;4953659;28;20059;-61
2024/03/02 03:17:34;;;;;;;10.15;5.35;;;4.60;99.90;;;;;;4950966;28;20066;-63
2024/03/02 03:20:03;;;;;;;8.57;5.00;;;4.60;99.90;;;;;;4952853;28;20051;-63
2024/03/02 03:22:35;;;;;;;6.90;4.72;;;4.60;99.90;;;;;;4952769;28;20043;-63
2024/03/02 03:25:03;;;;;;;6.90;5.30;;;4.60;99.90;;;;;;4951468;28;20047;-63
2024/03/02 03:27:30;;;;;;;11.88;5.13;;;4.50;99.90;;;;;;4952806;28;20059;-63
2024/03/02 03:29:57;;;;;;;6.78;4.60;;;4.50;99.90;;;;;;4949743;28;20051;-63
2024/03/02 03:32:23;;;;;;;6.13;4.72;;;4.60;99.90;;;;;;4950005;28;20359;-62
2024/03/02 03:34:50;;;;;;;6.70;4.63;;;4.50;99.90;;;;;;4953981;28;20090;-63
2024/03/02 03:37:17;;;;;;;7.18;4.70;;;4.50;99.90;;;;;;4951238;28;20066;-63
2024/03/02 03:39:43;;;;;;;7.07;4.45;;;4.40;99.90;;;;;;4952631;28;20514;-62
2024/03/02 03:42:10;;;;;;;6.45;2.83;;;4.50;99.90;;;;;;4954185;28;20043;-62
2024/03/02 03:44:37;;;;;;;2.00;1.67;;;4.50;99.90;;;;;;4960280;28;20054;-62
2024/03/02 03:47:04;;;;;;;3.38;2.55;;;4.80;99.90;;;;;;4949912;28;20047;-62
2024/03/02 03:49:30;;;;;;;3.50;2.17;;;4.90;99.90;;;;;;4955120;28;20055;-62
2024/03/02 03:51:57;;;;;;;5.72;2.47;;;5.00;99.90;;;;;;4956499;28;20622;-63
2024/03/02 03:54:24;;;;;;;4.13;2.92;;;5.10;99.90;;;;;;4954707;28;20055;-63
2024/03/02 03:56:50;;;;;;;3.42;2.45;;;5.20;99.90;;;;;;4952502;28;20051;-63
2024/03/02 03:59:17;;;;;;;6.95;3.30;;;5.20;99.90;;;;;;4954873;28;20066;-62
2024/03/02 04:01:44;;;;;;;4.70;2.90;;;5.20;99.90;;;;;;4955291;28;20415;-62
2024/03/02 04:04:11;;;;;;;5.07;3.50;;;5.10;99.90;;;;;;4952631;28;20078;-63
2024/03/02 04:06:37;;;;;;;3.00;2.22;;;5.10;99.90;;;;;;4957932;28;20098;-63
2024/03/02 04:09:04;;;;;;;3.25;2.33;;;5.10;99.90;;;;;;4959301;28;20126;-63
2024/03/02 04:11:31;;;;;;;3.47;2.67;;;5.00;99.90;;;;;;4953278;28;20054;-63
2024/03/02 04:13:58;;;;;;;3.35;2.00;;;5.00;99.90;;;;;;4953822;28;20058;-63
2024/03/02 04:16:25;;;;;;;2.75;1.83;;;5.00;99.90;;;;;;4953571;28;20078;-62
2024/03/02 04:18:51;;;;;;;1.45;1.20;;;5.10;99.90;;;;;;4957483;28;20050;-62
2024/03/02 04:21:18;;;;;;;1.30;0.82;;;5.20;99.90;;;;;;4954896;28;20079;-62
2024/03/02 04:23:45;;;;;;;1.70;0.90;;;5.40;99.90;;;;;;4952356;28;20043;-63
2024/03/02 04:26:12;;;;;;;1.30;1.10;;;5.60;99.90;;;;;;4954621;28;20468;-61
2024/03/02 04:28:39;;;;;;;1.33;1.23;;;5.80;99.90;;;;;;4952979;28;20154;-63
2024/03/02 04:31:05;;;;;;;1.42;1.00;;;6.00;99.90;;;;;;4953001;28;20054;-63
2024/03/02 04:33:32;;;;;;;1.10;1.00;;;6.20;99.90;;;;;;4951479;28;20085;-62
2024/03/02 04:35:59;;;;;;;1.63;1.13;;;6.40;99.90;;;;;;4949182;28;20055;-62
2024/03/02 04:38:25;;;;;;;1.30;0.98;;;6.60;99.90;;;;;;4949965;28;20141;-62
2024/03/02 04:40:52;;;;;;;1.45;0.90;;;7.00;99.90;;;;;;4951413;28;20067;-62
2024/03/02 04:43:19;;;;;;;1.63;1.00;;;7.20;99.90;;;;;;4950989;28;20642;-63
2024/03/02 04:45:45;;;;;;;1.77;1.05;;;7.20;99.90;;;;;;4950672;28;20058;-63
2024/03/02 04:48:13;;;;;;;2.90;1.10;;;7.40;99.90;;;;;;4949650;28;20126;-63
2024/03/02 04:50:40;;;;;;;0.98;0.82;;;7.60;99.90;;;;;;4950618;28;20047;-63
2024/03/02 04:53:07;;;;;;;1.92;0.93;;;7.50;99.90;;;;;;4949901;28;20070;-62
2024/03/02 04:58:01;;;;;;;1.50;1.15;;;7.70;99.90;;;;;;4950791;28;20098;-63
2024/03/02 05:00:28;;;;;;;1.10;0.90;;;7.90;99.90;;;;;;4949612;28;20094;-62
2024/03/02 05:02:55;;;;;;;1.48;1.00;;;8.00;99.90;;;;;;4953100;28;20047;-62
2024/03/02 05:05:21;;;;;;;0.95;0.90;;;8.00;99.90;;;;;;4950307;28;20091;-63
2024/03/02 05:07:48;;;;;;;1.30;0.80;;;8.00;99.90;;;;;;4944864;28;20544;-62
2024/03/02 05:10:15;;;;;;;2.47;1.38;;;8.00;99.90;;;;;;4949358;28;20051;-63
2024/03/02 05:15:13;;;;;;;1.10;1.00;;;7.80;99.90;;;;;;4949181;28;20452;-62
2024/03/02 05:17:44;;;;;;;2.17;0.93;;;7.80;99.90;;;;;;4954678;28;20095;-62
2024/03/02 05:20:11;;;;;;;1.45;0.80;;;7.80;99.90;;;;;;4952247;28;20054;-63
2024/03/02 05:22:39;;;;;;;2.20;0.75;;;7.80;99.90;;;;;;4950569;28;20558;-63
2024/03/02 05:25:09;;;;;;;2.63;0.90;;;7.80;99.90;;;;;;4949986;28;20043;-63
2024/03/02 05:27:36;;;;;;;3.17;1.00;;;7.90;99.90;;;;;;4950217;28;20404;-63
2024/03/02 05:30:06;;;;;;;0.73;0.73;;;8.20;99.90;;;;;;4947721;28;20043;-64
2024/03/02 05:32:33;;;;;;;1.50;1.00;;;8.40;99.90;;;;;;4949834;28;20639;-63
2024/03/02 05:35:00;;;;;;;1.50;1.08;;;8.30;99.90;;;;;;4949137;28;20130;-63
2024/03/02 05:37:28;;;;;;;3.75;0.80;;;8.30;99.90;;;;;;4949206;28;20448;-64
2024/03/02 05:39:55;;;;;;;1.60;1.00;;;8.30;99.90;;;;;;4948001;28;20059;-63
2024/03/02 05:42:23;;;;;;;1.17;0.85;;;8.40;99.90;;;;;;4945994;28;20058;-64
2024/03/02 05:44:49;;;;;;;2.30;1.10;;;8.50;99.90;;;;;;4949579;28;20132;-64
2024/03/02 05:47:16;;;;;;;1.50;1.05;;;8.50;99.90;;;;;;4930854;28;20046;-63
2024/03/02 05:49:43;;;;;;;1.40;0.90;;;8.50;99.90;;;;;;4948627;28;20043;-64
2024/03/02 05:52:11;;;;;;;3.42;1.10;;;8.60;99.90;;;;;;4947511;28;20059;-64
2024/03/02 05:54:38;;;;;;;1.00;0.82;;;8.60;99.90;;;;;;4951394;28;20105;-63
2024/03/02 05:57:31;;;;;;;1.35;1.05;;;8.50;99.90;;;;;;4950735;28;20043;-63
2024/03/02 05:59:59;;;;;;;1.33;0.95;;;8.40;99.90;;;;;;4948246;28;20082;-64
2024/03/02 06:02:26;;;;;;;3.35;1.33;;;8.30;99.90;;;;;;4948344;28;20063;-64
2024/03/02 06:04:54;;;;;;;2.03;1.20;;;8.30;99.90;;;;;;4948908;28;20047;-63
2024/03/02 06:07:21;;;;;;;1.33;0.98;;;8.20;99.90;;;;;;4949050;28;20047;-64
2024/03/02 06:09:50;;;;;;;1.33;1.00;;;8.10;99.90;;;;;;4949788;28;20604;-64
2024/03/02 06:12:17;;;;;;;2.10;0.82;;;8.10;99.90;;;;;;4949772;28;20059;-63
2024/03/02 06:14:44;;;;;;;0.85;0.70;;;8.10;99.90;;;;;;4949054;28;20043;-64
2024/03/02 06:17:10;;;;;;;0.77;0.77;;;7.90;99.90;;;;;;4949305;28;20142;-63
2024/03/02 06:19:37;;;;;;;1.98;0.80;;;7.90;99.90;;;;;;4948000;28;20057;-63
2024/03/02 06:22:05;;;;;;;0.55;0.55;;;8.00;99.90;;;;;;4949125;28;20051;-63
2024/03/02 06:24:32;;;;;;;0.90;0.80;;;8.00;99.90;;;;;;4948698;28;20444;-64
2024/03/02 06:26:59;;;;;;;0.57;0.57;;;8.10;99.90;;;;;;4950508;28;20073;-64
2024/03/02 06:29:25;;;;;;;0.80;0.70;;;8.20;99.90;;;;;;4947618;28;20460;-62
2024/03/02 06:31:52;;;;;;;1.60;0.90;;;8.20;99.90;;;;;;4949202;28;20097;-62
2024/03/02 06:34:20;;;;;;;1.65;1.02;;;8.20;99.90;;;;;;4947306;28;20473;-63
2024/03/02 06:36:47;;;;;;;3.28;1.45;;;8.10;99.90;;;;;;4946685;28;20051;-62
2024/03/02 06:39:14;;;;;;;2.97;1.27;;;8.00;99.90;;;;;;4947700;28;20081;-63
2024/03/02 06:41:42;;;;;;;2.15;1.00;;;8.00;99.90;;;;;;4950191;28;20385;-64
2024/03/02 06:44:09;;;;;;;1.02;0.88;;;8.00;99.90;;;;;;4948069;28;20047;-64
2024/03/02 06:46:35;;;;;;;1.13;0.82;;;8.20;99.90;;;;;;4942927;28;20085;-64
2024/03/02 06:49:03;;;;;;;1.35;0.80;;;8.30;99.90;;;;;;4947209;28;20062;-63
2024/03/02 06:51:30;;;;;;;0.98;0.80;;;8.30;99.90;;;;;;4947193;28;20484;-63
2024/03/02 06:53:57;;;;;;;1.77;0.73;;;8.50;99.90;;;;;;4948400;28;20051;-63
2024/03/02 06:56:24;;;;;;;0.98;0.80;;;8.50;99.90;;;;;;4929635;28;20065;-63
2024/03/02 06:58:51;;;;;;;0.90;0.68;;;8.70;99.90;;;;;;4946031;28;20070;-63
2024/03/02 07:01:17;;;;;;;0.70;0.70;;;8.70;99.90;;;;;;4944716;28;20189;-63
2024/03/02 07:03:44;;;;;;;0.70;0.65;;;8.70;99.90;;;;;;4944121;28;20072;-63
2024/03/02 07:06:11;;;;;;;0.57;0.55;;;8.80;99.90;;;;;;4947756;28;20040;-63
2024/03/02 07:08:38;;;;;;;1.23;0.70;;;8.70;99.90;;;;;;4943755;28;20058;-63
2024/03/02 07:11:04;;;;;;;0.60;0.50;;;8.80;99.90;;;;;;4946583;28;20142;-63
2024/03/02 07:13:31;;;;;;;6.95;1.00;;;8.90;99.90;;;;;;4948213;28;20556;-64
2024/03/02 07:18:33;;;;;;;0.60;0.60;;;9.20;99.90;;;;;;4943291;28;20585;-64
2024/03/02 07:21:00;;;;;;;0.70;0.52;;;9.20;99.90;;;;;;4939408;28;20075;-64
2024/03/02 07:23:28;;;;;;;0.77;0.50;;;9.30;99.90;;;;;;4941504;28;20058;-64
2024/03/02 07:25:56;;;;;;;1.65;0.80;;;9.40;99.90;;;;;;4944506;28;20091;-64
2024/03/02 07:28:26;;;;;;;2.13;1.17;;;9.30;99.90;;;;;;4941039;28;20082;-64
2024/03/02 07:31:00;;;;;;;1.55;1.10;;;9.20;99.90;;;;;;4945089;28;20055;-64
2024/03/02 07:33:27;;;;;;;1.75;0.98;;;9.10;99.90;;;;;;4946655;28;20051;-64
2024/03/02 07:35:55;;;;;;;0.80;0.80;;;9.10;99.90;;;;;;4945338;28;20054;-64
2024/03/02 07:38:23;;;;;;;0.68;0.68;;;9.10;99.90;;;;;;4946837;28;20051;-64
2024/03/02 07:40:53;;;;;;;0.70;0.60;;;9.20;99.90;;;;;;4946815;28;20051;-64
2024/03/02 07:43:20;;;;;;;0.95;0.80;;;9.20;99.90;;;;;;4947981;28;20601;-64
2024/03/02 07:45:47;;;;;;;0.70;0.70;;;9.30;99.90;;;;;;4946848;28;20575;-64
2024/03/02 07:48:15;;;;;;;1.48;0.65;;;9.30;99.90;;;;;;4947866;28;20054;-63
2024/03/02 07:50:43;;;;;;;0.95;0.60;;;9.40;99.90;;;;;;4944264;28;20695;-64
2024/03/02 07:53:09;;;;;;;2.90;0.80;;;9.50;99.90;;;;;;4943008;28;20055;-64
2024/03/02 07:55:36;;;;;;;2.33;0.75;;;9.60;99.90;;;;;;4951982;28;20059;-64
2024/03/02 07:58:03;;;;;;;1.25;0.70;;;9.70;99.90;;;;;;4951326;28;20072;-64
2024/03/02 08:00:30;;;;;;;1.63;0.88;;;9.80;99.90;;;;;;4950265;28;20173;-64
2024/03/02 08:02:57;;;;;;;1.00;0.90;;;9.80;99.90;;;;;;4955442;28;20399;-64
2024/03/02 08:05:23;;;;;;;1.05;0.60;;;9.80;99.90;;;;;;4949275;28;20500;-64
2024/03/02 08:07:52;;;;;;;1.02;0.80;;;9.90;99.90;;;;;;4946844;28;20066;-64
2024/03/02 08:10:19;;;;;;;1.02;0.70;;;9.90;99.90;;;;;;4944479;28;20142;-64
2024/03/02 08:12:46;;;;;;;0.60;0.50;;;10.00;99.90;;;;;;4947202;28;20097;-64
2024/03/02 08:15:13;;;;;;;1.17;0.60;;;10.00;99.90;;;;;;4944450;28;20720;-64
2024/03/02 08:17:48;;;;;;;0.95;0.60;;;10.10;99.90;;;;;;4945309;28;20079;-64
2024/03/02 08:20:15;;;;;;;0.43;0.43;;;10.20;99.90;;;;;;4943210;28;20055;-64
2024/03/02 08:22:42;;;;;;;0.60;0.60;;;10.20;99.90;;;;;;4942364;28;20714;-64
2024/03/02 08:25:09;;;;;;;0.70;0.70;;;10.30;99.90;;;;;;4944755;28;20059;-64
2024/03/02 08:27:36;;;;;;;0.73;0.73;;;10.30;99.90;;;;;;4945965;28;20074;-64
2024/03/02 08:30:06;;;;;;;0.82;0.73;;;10.40;99.90;;;;;;4944709;28;20500;-64
2024/03/02 08:32:33;;;;;;;1.25;0.75;;;10.40;99.90;;;;;;4945336;28;20058;-64
2024/03/02 08:35:01;;;;;;;2.15;0.63;;;10.40;99.90;;;;;;4946416;28;20082;-64
2024/03/02 08:37:27;;;;;;;1.55;0.70;;;10.50;99.90;;;;;;4943536;28;20055;-64
2024/03/02 08:39:54;;;;;;;1.00;0.80;;;10.50;99.90;;;;;;4943445;28;20511;-64
2024/03/02 08:42:22;;;;;;;0.60;0.60;;;10.50;99.90;;;;;;4945848;28;20488;-64
2024/03/02 08:44:49;;;;;;;2.10;0.60;;;10.60;99.90;;;;;;4943864;28;20043;-64
2024/03/02 08:47:16;;;;;;;1.20;0.80;;;10.70;99.90;;;;;;4944655;28;20075;-64
2024/03/02 08:49:43;;;;;;;0.90;0.70;;;10.80;99.90;;;;;;4954582;28;20057;-64
2024/03/02 08:52:10;;;;;;;1.42;0.70;;;10.80;99.90;;;;;;4953668;28;20048;-64
2024/03/02 08:54:37;;;;;;;1.08;0.50;;;10.80;99.90;;;;;;4945841;28;20051;-64
2024/03/02 08:57:05;;;;;;;0.90;0.70;;;10.90;99.90;;;;;;4946365;28;20058;-64
2024/03/02 08:59:32;;;;;;;1.40;0.90;;;11.00;99.90;;;;;;4950471;28;20090;-64
2024/03/02 09:01:59;;;;;;;0.70;0.70;;;10.90;99.90;;;;;;4949552;28;20043;-64
2024/03/02 09:04:26;;;;;;;3.00;0.88;;;10.90;99.90;;;;;;4942112;28;20063;-64
2024/03/02 09:06:55;;;;;;;3.25;1.15;;;10.90;99.90;;;;;;4942804;28;20048;-64
2024/03/02 09:09:22;;;;;;;1.92;1.50;;;11.00;99.90;;;;;;4941494;28;20673;-64
2024/03/02 09:11:49;;;;;;;4.00;1.40;;;11.10;99.90;;;;;;4944442;28;20054;-64
2024/03/02 09:14:16;;;;;;;4.90;2.70;;;11.00;99.90;;;;;;4932027;29;20085;-64
2024/03/02 09:16:42;;;;;;;3.15;2.22;;;11.10;99.90;;;;;;4943206;28;20047;-64
2024/03/02 09:19:10;;;;;;;4.05;2.00;;;11.10;99.90;;;;;;4945075;28;20043;-64
2024/03/02 09:21:37;;;;;;;2.10;1.63;;;11.20;99.90;;;;;;4943666;28;20564;-64
2024/03/02 09:24:06;;;;;;;3.00;1.60;;;11.20;99.90;;;;;;4943883;28;20923;-64
2024/03/02 09:26:33;;;;;;;1.75;1.48;;;11.30;99.90;;;;;;4944147;28;20047;-64
2024/03/02 09:29:00;;;;;;;2.42;1.50;;;11.30;99.90;;;;;;4944651;28;20512;-64
2024/03/02 09:31:26;;;;;;;1.73;1.08;;;11.30;99.90;;;;;;4944037;28;20143;-64
2024/03/02 09:33:53;;;;;;;1.33;1.20;;;11.30;99.90;;;;;;4944152;28;20062;-64
2024/03/02 09:36:22;;;;;;;1.88;1.27;;;11.30;99.90;;;;;;4944556;28;20075;-64
2024/03/02 09:38:49;;;;;;;1.10;0.90;;;11.40;99.90;;;;;;4943924;28;20114;-64
2024/03/02 09:41:16;;;;;;;1.88;1.23;;;11.40;99.90;;;;;;4944901;28;20050;-64
2024/03/02 09:43:43;;;;;;;1.67;1.02;;;11.30;99.90;;;;;;4943120;28;20047;-64
2024/03/02 09:46:10;;;;;;;1.45;0.90;;;11.30;99.90;;;;;;4945688;28;20807;-64
2024/03/02 09:48:37;;;;;;;1.00;0.90;;;11.40;99.90;;;;;;4943585;28;20055;-64
2024/03/02 09:51:05;;;;;;;1.75;1.10;;;11.50;99.90;;;;;;4942516;28;20488;-64
2024/03/02 09:53:33;;;;;;;2.65;1.20;;;11.50;99.90;;;;;;4943581;28;20051;-64
2024/03/02 09:56:01;;;;;;;1.70;1.10;;;11.50;99.90;;;;;;4948451;28;20050;-64
2024/03/02 09:58:28;;;;;;;2.15;1.10;;;11.50;99.90;;;;;;4949532;28;20577;-64
2024/03/02 10:00:55;;;;;;;2.00;1.35;;;11.60;99.90;;;;;;4947585;28;20079;-64
2024/03/02 10:03:28;;;;;;;1.25;1.10;;;11.50;99.90;;;;;;4949341;28;20480;-64
2024/03/02 10:05:55;;;;;;;1.55;1.20;;;11.50;99.90;;;;;;4949361;28;20059;-64
2024/03/02 10:08:22;;;;;;;1.75;1.52;;;11.50;99.90;;;;;;4950101;28;20134;-64
2024/03/02 10:10:49;;;;;;;1.50;1.00;;;11.60;99.90;;;;;;4949127;28;20062;-63
2024/03/02 10:13:16;;;;;;;1.20;1.10;;;11.70;99.90;;;;;;4948784;28;20047;-62
2024/03/02 10:15:43;;;;;;;1.65;1.00;;;11.80;99.90;;;;;;4946158;28;20145;-63
2024/03/02 10:18:11;;;;;;;1.75;1.00;;;11.80;99.90;;;;;;4948260;28;20082;-63
2024/03/02 10:20:39;;;;;;;2.78;1.20;;;11.80;99.90;;;;;;4948839;28;20059;-62
2024/03/02 10:23:11;;;;;;;0.80;0.77;;;11.80;99.90;;;;;;4947273;28;20513;-64
2024/03/02 10:25:38;;;;;;;1.35;1.25;;;11.80;99.90;;;;;;4948790;28;20154;-63
2024/03/02 10:28:18;;;;;;;2.45;1.20;;;11.80;99.90;;;;;;4949289;28;20617;-63
2024/03/02 10:30:47;;;;;;;4.13;1.35;;;11.70;99.90;;;;;;4949154;28;20051;-63
2024/03/02 10:33:14;;;;;;;2.25;1.20;;;11.60;99.90;;;;;;4949034;29;20515;-64
2024/03/02 10:35:43;;;;;;;1.95;1.02;;;11.60;99.90;;;;;;4947040;28;20047;-63
2024/03/02 10:38:11;;;;;;;1.77;0.90;;;11.50;99.90;;;;;;4944352;28;20136;-64
2024/03/02 10:40:38;;;;;;;1.42;1.08;;;11.50;99.90;;;;;;4943839;28;20098;-64
2024/03/02 10:43:06;;;;;;;2.17;0.80;;;11.60;99.90;;;;;;4946221;28;20043;-64
2024/03/02 10:45:33;;;;;;;0.80;0.73;;;11.60;99.90;;;;;;4947356;29;20063;-64
2024/03/02 10:48:02;;;;;;;1.17;0.95;;;11.70;99.90;;;;;;4947117;28;20075;-64
2024/03/02 10:50:30;;;;;;;1.38;0.80;;;11.70;99.90;;;;;;4945573;28;20484;-64
2024/03/02 10:52:57;;;;;;;0.80;0.80;;;11.90;99.90;;;;;;4947694;28;20046;-63
2024/03/02 10:55:24;;;;;;;1.70;0.70;;;11.80;99.90;;;;;;4946820;28;20512;-62
2024/03/02 10:57:53;;;;;;;0.80;0.80;;;12.00;99.90;;;;;;4949035;28;20126;-63
2024/03/02 11:00:26;;;;;;;1.27;0.70;;;12.10;99.90;;;;;;4949398;28;20051;-64
2024/03/02 11:03:00;;;;;;;2.42;1.00;;;12.20;99.90;;;;;;4949634;28;20051;-62
2024/03/02 11:05:34;;;;;;;0.93;0.80;;;12.30;99.90;;;;;;4948044;28;20055;-63
2024/03/02 11:08:05;;;;;;;1.30;1.05;;;12.30;99.90;;;;;;4947601;23;20581;-60
2024/03/02 11:10:41;;;;;;;1.88;1.45;;;12.40;99.90;;;;;;4932723;29;20169;-59
2024/03/02 11:13:15;;;;;;;1.00;0.85;;;12.40;99.90;;;;;;4927217;29;20059;-60
2024/03/02 11:15:44;;;;;;;1.52;1.00;;;12.50;99.90;;;;;;4924810;29;20059;-62
2024/03/02 11:18:12;;;;;;;1.02;0.93;;;12.50;99.90;;;;;;4928508;29;20496;-61
2024/03/02 11:20:40;;;;;;;3.28;1.30;;;12.50;99.90;;;;;;4928415;29;20050;-61
2024/03/02 11:23:08;;;;;;;1.02;0.93;;;12.60;99.90;;;;;;4929549;29;20048;-61
2024/03/02 11:25:36;;;;;;;1.73;1.02;;;12.70;99.90;;;;;;4940464;29;20047;-61
2024/03/02 11:28:09;;;;;;;1.88;1.08;;;12.70;99.90;;;;;;4932063;29;20424;-61
2024/03/02 11:30:37;;;;;;;1.05;0.80;;;12.70;99.90;;;;;;4934730;29;20051;-59
2024/03/02 11:33:08;;;;;;;1.77;0.90;;;12.80;99.90;;;;;;4940129;29;20411;-59
2024/03/02 11:35:37;;;;;;;3.17;0.85;;;12.90;99.90;;;;;;4928902;29;20055;-62
2024/03/02 11:38:04;;;;;;;1.05;0.90;;;12.90;99.90;;;;;;4935466;29;20055;-61
2024/03/02 11:40:31;;;;;;;1.50;0.90;;;12.80;99.90;;;;;;4913927;29;20067;-61
2024/03/02 11:43:00;;;;;;;0.73;0.73;;;12.70;99.90;;;;;;4929399;29;20044;-60
2024/03/02 11:45:27;;;;;;;1.58;0.82;;;12.70;99.90;;;;;;4933479;29;20058;-62
2024/03/02 11:47:57;;;;;;;2.78;1.00;;;12.80;99.90;;;;;;4938055;29;20102;-62
2024/03/02 11:50:30;;;;;;;1.35;1.10;;;12.90;99.90;;;;;;4927916;29;20094;-61
2024/03/02 11:52:58;;;;;;;1.40;0.95;;;13.00;99.90;;;;;;4936297;29;20492;-62
2024/03/02 11:55:30;;;;;;;1.10;0.70;;;13.20;99.90;;;;;;4932841;29;20051;-61
2024/03/02 11:57:58;;;;;;;1.25;0.80;;;13.60;99.90;;;;;;4937916;29;20058;-61
2024/03/02 12:00:26;;;;;;;0.85;0.70;;;13.80;99.90;;;;;;4944084;29;20138;-60
2024/03/02 12:03:05;;;;;;;0.60;0.60;;;14.00;99.90;;;;;;4944076;29;20135;-62
2024/03/02 12:05:32;;;;;;;1.10;0.80;;;14.20;99.90;;;;;;4937444;29;20047;-62
2024/03/02 12:08:01;;;;;;;1.75;0.90;;;14.30;99.90;;;;;;4939301;29;20040;-60
2024/03/02 12:10:28;;;;;;;1.15;0.70;;;14.40;99.90;;;;;;4945893;29;20054;-62
2024/03/02 12:12:58;;;;;;;1.02;0.60;;;14.60;99.90;;;;;;4946886;29;20082;-62
2024/03/02 12:15:30;;;;;;;0.63;0.57;;;14.70;99.90;;;;;;4944476;29;20063;-63
2024/03/02 12:17:58;;;;;;;1.65;0.65;;;14.90;99.90;;;;;;4938431;29;20516;-63
2024/03/02 12:20:27;;;;;;;0.40;0.40;;;14.90;99.90;;;;;;4945765;29;20059;-64
2024/03/02 12:22:57;;;;;;;1.67;0.60;;;15.00;99.90;;;;;;4938007;29;20048;-64
2024/03/02 12:25:25;;;;;;;2.25;0.82;;;15.00;99.90;;;;;;4940400;29;20059;-63
2024/03/02 12:27:55;;;;;;;0.55;0.50;;;15.20;99.90;;;;;;4944125;29;20465;-63
2024/03/02 12:30:23;;;;;;;0.80;0.60;;;15.30;99.90;;;;;;4918672;29;20122;-63
2024/03/02 12:32:50;;;;;;;0.73;0.57;;;15.40;99.90;;;;;;4939858;29;20062;-63
2024/03/02 12:35:18;;;;;;;1.17;0.68;;;15.50;99.90;;;;;;4928570;29;20501;-64
2024/03/02 12:37:49;;;;;;;0.40;0.40;;;15.50;99.90;;;;;;4925320;29;20844;-60
2024/03/02 12:40:22;;;;;;;0.40;0.40;;;15.40;99.90;;;;;;4927672;29;20070;-62
2024/03/02 12:42:50;;;;;;;1.23;0.50;;;15.40;99.90;;;;;;4926115;29;20048;-63
2024/03/02 12:45:23;;;;;;;0.45;0.45;;;15.30;99.90;;;;;;4935283;29;20424;-63
2024/03/02 12:47:51;;;;;;;0.85;0.30;;;15.30;99.90;;;;;;4927452;29;20142;-63
2024/03/02 12:50:19;;;;;;;2.65;0.40;;;15.30;99.90;;;;;;4934596;29;21186;-63
2024/03/02 12:52:53;;;;;;;0.32;0.30;;;15.40;99.90;;;;;;4925798;29;20050;-63
2024/03/02 12:55:24;;;;;;;0.40;0.40;;;15.40;99.90;;;;;;4911706;29;20110;-63
2024/03/02 12:57:52;;;;;;;0.57;0.50;;;15.60;99.90;;;;;;4928745;29;20050;-62
2024/03/02 13:00:21;;;;;;;0.68;0.50;;;15.60;99.90;;;;;;4930658;29;20136;-63
2024/03/02 13:02:50;;;;;;;0.55;0.40;;;15.60;99.90;;;;;;4931964;29;20424;-63
2024/03/02 13:05:18;;;;;;;0.80;0.60;;;15.70;99.90;;;;;;4934687;29;20417;-62